createdAt,value
2023-02-02T00:02:00.066Z,6.40
2023-02-02T00:04:33.038Z,8.60
2023-02-02T00:07:04.096Z,6.80
2023-02-02T00:09:34.281Z,8.10
2023-02-02T00:12:03.501Z,8.50
2023-02-02T00:14:32.806Z,4.80
2023-02-02T00:17:01.660Z,5.10
2023-02-02T00:19:32.195Z,4.90
2023-02-02T00:22:01.138Z,4.80
2023-02-02T00:24:30.119Z,4.60
2023-02-02T00:27:00.579Z,7.20
2023-02-02T00:29:32.347Z,12.60
2023-02-02T00:32:01.133Z,7.90
2023-02-02T00:34:30.038Z,5.30
2023-02-02T00:36:59.187Z,4.80
2023-02-02T00:39:28.072Z,4.70
2023-02-02T00:41:57.516Z,5.30
2023-02-02T00:44:45.193Z,4.90
2023-02-02T00:47:13.968Z,5.20
2023-02-02T00:49:42.649Z,6.20
2023-02-02T00:52:11.682Z,7.20
2023-02-02T00:54:40.591Z,5.80
2023-02-02T00:57:13.789Z,6.90
2023-02-02T00:59:43.529Z,7.20
2023-02-02T01:02:13.518Z,7.20
2023-02-02T01:04:42.337Z,6.10
2023-02-02T01:07:11.327Z,4.80
2023-02-02T01:09:40.507Z,5.30
2023-02-02T01:12:10.170Z,4.70
2023-02-02T01:14:39.659Z,4.70
2023-02-02T01:17:08.572Z,4.20
2023-02-02T01:19:37.658Z,4.30
2023-02-02T01:22:07.219Z,4.90
2023-02-02T01:24:36.269Z,7.70
2023-02-02T01:27:07.611Z,8.10
2023-02-02T01:29:36.512Z,6.00
2023-02-02T01:32:05.730Z,5.10
2023-02-02T01:34:34.744Z,5.10
2023-02-02T01:37:03.605Z,5.40
2023-02-02T01:39:34.261Z,7.10
2023-02-02T01:42:03.994Z,7.30
2023-02-02T01:44:57.920Z,6.10
2023-02-02T01:47:30.614Z,5.00
2023-02-02T01:49:59.924Z,6.20
2023-02-02T01:52:31.765Z,8.20
2023-02-02T01:55:08.767Z,6.10
2023-02-02T01:57:44.033Z,5.40
2023-02-02T02:00:16.785Z,4.70
2023-02-02T02:02:48.787Z,5.00
2023-02-02T02:05:24.780Z,5.60
2023-02-02T02:08:01.948Z,5.70
2023-02-02T02:10:31.171Z,5.10
2023-02-02T02:13:00.288Z,6.60
2023-02-02T02:15:56.279Z,9.80
2023-02-02T02:18:48.718Z,5.40
2023-02-02T02:22:14.340Z,4.30
2023-02-02T02:25:48.272Z,5.30
2023-02-02T02:28:17.123Z,6.20
2023-02-02T02:31:01.232Z,6.20
2023-02-02T02:33:45.250Z,5.60
2023-02-02T02:36:39.917Z,5.50
2023-02-02T02:39:27.077Z,5.60
2023-02-02T02:42:01.437Z,5.90
2023-02-02T02:44:33.001Z,6.00
2023-02-02T02:47:03.818Z,5.90
2023-02-02T02:49:32.802Z,4.90
2023-02-02T02:52:01.728Z,4.80
2023-02-02T02:54:45.912Z,4.70
2023-02-02T02:57:29.989Z,4.70
2023-02-02T03:00:38.811Z,4.40
2023-02-02T03:03:34.968Z,3.80
2023-02-02T03:06:24.206Z,3.70
2023-02-02T03:09:08.501Z,3.90
2023-02-02T03:11:38.220Z,4.00
2023-02-02T03:14:10.163Z,4.00
2023-02-02T03:16:39.371Z,4.20
2023-02-02T03:19:09.787Z,4.40
2023-02-02T03:21:38.670Z,4.20
2023-02-02T03:24:08.125Z,4.30
2023-02-02T03:26:38.597Z,3.80
2023-02-02T03:29:11.889Z,3.80
2023-02-02T03:31:40.881Z,4.20
2023-02-02T03:34:10.700Z,10.90
2023-02-02T03:36:40.110Z,6.80
2023-02-02T03:39:08.847Z,5.50
2023-02-02T03:41:37.731Z,8.60
2023-02-02T03:44:06.522Z,7.20
2023-02-02T03:46:35.827Z,4.90
2023-02-02T03:49:04.455Z,4.80
2023-02-02T03:51:34.098Z,6.00
2023-02-02T03:54:02.809Z,6.90
2023-02-02T03:56:31.564Z,6.50
2023-02-02T03:59:00.657Z,18.10
2023-02-02T04:01:30.916Z,5.40
2023-02-02T04:04:00.321Z,5.10
2023-02-02T04:06:30.400Z,5.20
2023-02-02T04:08:58.887Z,6.70
2023-02-02T04:11:27.772Z,6.70
2023-02-02T04:13:56.560Z,6.20
2023-02-02T04:16:25.469Z,5.30
2023-02-02T04:18:54.195Z,5.00
2023-02-02T04:21:22.953Z,5.10
2023-02-02T04:23:51.913Z,4.90
2023-02-02T04:26:21.491Z,4.50
2023-02-02T04:28:50.655Z,4.60
2023-02-02T04:31:20.018Z,4.10
2023-02-02T04:33:48.945Z,4.40
2023-02-02T04:36:17.789Z,4.70
2023-02-02T04:38:51.221Z,4.90
2023-02-02T04:41:21.614Z,4.80
2023-02-02T04:43:50.779Z,5.40
2023-02-02T04:46:19.757Z,4.70
2023-02-02T04:48:50.272Z,5.20
2023-02-02T04:51:19.300Z,5.40
2023-02-02T04:53:48.024Z,4.00
2023-02-02T04:56:19.284Z,4.30
2023-02-02T04:58:48.448Z,5.80
2023-02-02T05:01:20.225Z,6.50
2023-02-02T05:03:50.320Z,4.40
2023-02-02T05:06:20.154Z,5.00
2023-02-02T05:08:49.435Z,4.20
2023-02-02T05:11:22.993Z,4.00
2023-02-02T05:13:54.551Z,4.30
2023-02-02T05:16:25.894Z,4.00
2023-02-02T05:18:58.242Z,4.10
2023-02-02T05:21:27.144Z,4.10
2023-02-02T05:23:55.952Z,5.70
2023-02-02T05:26:28.175Z,5.60
2023-02-02T05:28:57.783Z,4.90
2023-02-02T05:31:26.693Z,4.40
2023-02-02T05:33:55.592Z,5.80
2023-02-02T05:36:24.366Z,6.80
2023-02-02T05:38:53.761Z,5.50
2023-02-02T05:41:22.521Z,4.80
2023-02-02T05:43:51.439Z,4.80
2023-02-02T05:46:20.861Z,5.00
2023-02-02T05:48:49.972Z,5.10
2023-02-02T05:51:36.271Z,4.60
2023-02-02T05:54:05.362Z,4.00
2023-02-02T05:56:34.047Z,4.30
2023-02-02T05:59:06.901Z,4.30
2023-02-02T06:01:36.511Z,4.40
2023-02-02T06:04:05.437Z,3.80
2023-02-02T06:06:36.250Z,3.60
2023-02-02T06:09:06.856Z,5.20
2023-02-02T06:11:36.859Z,10.60
2023-02-02T06:14:06.443Z,8.40
2023-02-02T06:16:35.706Z,8.10
2023-02-02T06:19:05.150Z,6.20
2023-02-02T06:21:34.217Z,4.60
2023-02-02T06:24:03.051Z,4.80
2023-02-02T06:26:32.011Z,4.60
2023-02-02T06:29:00.917Z,4.40
2023-02-02T06:31:30.007Z,4.40
2023-02-02T06:33:59.405Z,4.60
2023-02-02T06:36:28.604Z,5.20
2023-02-02T06:38:59.152Z,7.60
2023-02-02T06:41:28.492Z,9.40
2023-02-02T06:43:57.532Z,6.30
2023-02-02T06:46:26.325Z,4.20
2023-02-02T06:48:55.373Z,4.50
2023-02-02T06:51:24.920Z,5.40
2023-02-02T06:53:53.977Z,4.10
2023-02-02T06:56:23.461Z,5.50
2023-02-02T06:58:52.584Z,7.50
2023-02-02T07:01:22.005Z,4.50
2023-02-02T07:03:54.470Z,4.40
2023-02-02T07:06:27.163Z,8.10
2023-02-02T07:09:02.723Z,5.10
2023-02-02T07:11:35.351Z,6.00
2023-02-02T07:14:10.475Z,5.10
2023-02-02T07:16:39.327Z,6.30
2023-02-02T07:19:08.347Z,4.70
2023-02-02T07:21:37.428Z,20.10
2023-02-02T07:24:07.688Z,7.30
2023-02-02T07:26:37.089Z,7.80
2023-02-02T07:29:07.318Z,46.70
2023-02-02T07:31:37.045Z,34.80
2023-02-02T07:34:07.229Z,13.60
2023-02-02T07:36:36.870Z,7.00
2023-02-02T07:39:06.273Z,6.50
2023-02-02T07:41:37.451Z,6.90
2023-02-02T07:44:07.882Z,8.20
2023-02-02T07:46:36.637Z,13.90
2023-02-02T07:49:07.713Z,16.00
2023-02-02T07:51:38.243Z,20.60
2023-02-02T07:54:09.899Z,20.90
2023-02-02T07:56:40.479Z,15.50
2023-02-02T07:59:11.218Z,5.60
2023-02-02T08:01:40.170Z,5.50
2023-02-02T08:04:08.945Z,5.40
2023-02-02T08:06:40.102Z,5.20
2023-02-02T08:09:10.090Z,7.90
2023-02-02T08:11:39.821Z,5.60
2023-02-02T08:14:09.352Z,7.50
2023-02-02T08:16:38.974Z,6.40
2023-02-02T08:19:08.534Z,7.20
2023-02-02T08:21:38.564Z,8.50
2023-02-02T08:24:07.795Z,10.50
2023-02-02T08:26:36.984Z,11.30
2023-02-02T08:29:09.016Z,9.20
2023-02-02T08:31:43.751Z,10.00
2023-02-02T08:34:14.660Z,9.70
2023-02-02T08:36:43.405Z,12.00
2023-02-02T08:39:15.182Z,12.70
2023-02-02T08:41:45.696Z,10.50
2023-02-02T08:44:16.938Z,11.80
2023-02-02T08:46:46.314Z,11.80
2023-02-02T08:49:15.834Z,11.00
2023-02-02T08:51:44.765Z,10.00
2023-02-02T08:54:14.099Z,9.20
2023-02-02T08:56:43.729Z,9.00
2023-02-02T08:59:13.399Z,9.10
2023-02-02T09:01:42.270Z,9.00
2023-02-02T09:04:19.191Z,10.80
2023-02-02T09:06:48.845Z,11.70
2023-02-02T09:09:19.449Z,14.00
2023-02-02T09:11:49.923Z,9.80
2023-02-02T09:14:20.558Z,14.40
2023-02-02T09:16:49.683Z,20.40
2023-02-02T09:19:20.094Z,17.40
2023-02-02T09:21:53.438Z,13.10
2023-02-02T09:24:23.858Z,18.90
2023-02-02T09:26:53.942Z,9.00
2023-02-02T09:29:23.673Z,6.40
2023-02-02T09:31:53.326Z,6.30
2023-02-02T09:34:23.068Z,6.60
2023-02-02T09:36:52.581Z,6.30
2023-02-02T09:39:23.396Z,6.10
2023-02-02T09:42:01.924Z,6.10
2023-02-02T09:44:50.811Z,6.60
2023-02-02T09:47:23.077Z,6.20
2023-02-02T09:50:04.130Z,5.40
2023-02-02T09:52:36.348Z,5.60
2023-02-02T09:55:22.645Z,5.20
2023-02-02T09:57:58.846Z,5.40
2023-02-02T10:00:38.476Z,5.20
2023-02-02T10:03:16.185Z,6.20
2023-02-02T10:06:18.997Z,6.30
2023-02-02T10:08:56.800Z,5.10
2023-02-02T10:11:50.621Z,4.70
2023-02-02T10:14:29.558Z,5.00
2023-02-02T10:17:10.229Z,4.60
2023-02-02T10:19:42.067Z,4.40
2023-02-02T10:22:20.626Z,5.00
2023-02-02T10:24:52.966Z,5.10
2023-02-02T10:27:38.648Z,5.30
2023-02-02T10:30:45.914Z,4.70
2023-02-02T10:33:40.320Z,4.40
2023-02-02T10:36:20.040Z,4.50
2023-02-02T10:38:58.733Z,4.30
2023-02-02T10:41:46.217Z,4.30
2023-02-02T10:44:31.326Z,4.40
2023-02-02T10:47:04.595Z,4.00
2023-02-02T10:49:37.829Z,4.00
2023-02-02T10:52:12.580Z,4.30
2023-02-02T10:54:57.880Z,4.10
2023-02-02T10:57:49.367Z,4.60
2023-02-02T11:00:40.904Z,2.80
2023-02-02T11:03:12.730Z,2.80
2023-02-02T11:06:01.191Z,3.10
2023-02-02T11:08:38.675Z,3.00
2023-02-02T11:11:21.656Z,3.10
2023-02-02T11:14:03.557Z,3.20
2023-02-02T11:16:42.794Z,5.00
2023-02-02T11:19:20.092Z,3.10
2023-02-02T11:21:53.820Z,3.40
2023-02-02T11:24:41.134Z,4.90
2023-02-02T11:27:18.384Z,3.30
2023-02-02T11:29:51.155Z,2.90
2023-02-02T11:32:38.541Z,3.40
2023-02-02T11:35:07.531Z,3.20
2023-02-02T11:37:38.885Z,2.90
2023-02-02T11:40:53.215Z,2.90
2023-02-02T11:43:32.449Z,3.10
2023-02-02T11:46:08.514Z,3.00
2023-02-02T11:48:40.341Z,2.90
2023-02-02T11:51:26.666Z,3.30
2023-02-02T11:54:01.740Z,3.20
2023-02-02T11:56:31.063Z,3.10
2023-02-02T11:59:04.365Z,3.10
2023-02-02T12:01:40.574Z,2.90
2023-02-02T12:04:20.025Z,3.10
2023-02-02T12:06:49.272Z,3.00
2023-02-02T12:09:23.331Z,2.90
2023-02-02T12:12:06.024Z,3.00
2023-02-02T12:14:35.278Z,2.90
2023-02-02T12:17:11.262Z,2.90
2023-02-02T12:19:51.839Z,3.30
2023-02-02T12:22:46.144Z,3.40
2023-02-02T12:25:16.978Z,3.50
2023-02-02T12:27:53.929Z,3.10
2023-02-02T12:31:06.322Z,3.10
2023-02-02T12:34:18.778Z,3.30
2023-02-02T12:37:04.657Z,2.80
2023-02-02T12:40:04.331Z,3.10
2023-02-02T12:42:55.042Z,2.80
2023-02-02T12:45:51.370Z,3.40
2023-02-02T12:48:44.610Z,2.60
2023-02-02T12:51:33.149Z,2.90
2023-02-02T12:54:32.930Z,3.00
2023-02-02T12:57:14.211Z,3.00
2023-02-02T12:59:52.109Z,2.70
2023-02-02T13:02:40.251Z,3.10
2023-02-02T13:05:20.955Z,5.00
2023-02-02T13:08:10.699Z,3.30
2023-02-02T13:10:47.429Z,3.20
2023-02-02T13:13:35.387Z,4.30
2023-02-02T13:16:12.732Z,2.90
2023-02-02T13:18:49.207Z,3.00
2023-02-02T13:21:23.175Z,5.70
2023-02-02T13:24:06.076Z,3.10
2023-02-02T13:26:41.374Z,2.80
2023-02-02T13:29:47.579Z,4.70
2023-02-02T13:32:22.322Z,3.00
2023-02-02T13:34:57.751Z,3.00
2023-02-02T13:38:05.883Z,2.70
2023-02-02T13:40:41.079Z,2.70
2023-02-02T13:43:30.854Z,3.00
2023-02-02T13:46:31.016Z,4.40
2023-02-02T13:49:18.964Z,3.40
2023-02-02T13:51:56.433Z,3.50
2023-02-02T13:55:18.819Z,11.90
2023-02-02T13:58:07.400Z,4.60
2023-02-02T14:00:48.518Z,2.70
2023-02-02T14:03:42.485Z,3.30
2023-02-02T14:06:23.230Z,3.30
2023-02-02T14:08:55.661Z,3.80
2023-02-02T14:11:32.134Z,4.60
2023-02-02T14:14:39.555Z,3.50
2023-02-02T14:17:14.467Z,5.40
2023-02-02T14:19:55.594Z,3.60
2023-02-02T14:22:45.282Z,3.60
2023-02-02T14:25:40.620Z,3.30
2023-02-02T14:28:12.715Z,2.70
2023-02-02T14:30:42.499Z,2.80
2023-02-02T14:33:28.387Z,2.90
2023-02-02T14:36:02.047Z,2.80
2023-02-02T14:38:54.646Z,3.00
2023-02-02T14:42:02.238Z,3.00
2023-02-02T14:44:31.974Z,3.00
2023-02-02T14:47:06.049Z,3.20
2023-02-02T14:49:36.976Z,3.30
2023-02-02T14:52:24.216Z,2.90
2023-02-02T14:54:54.298Z,3.20
2023-02-02T14:57:29.461Z,2.80
2023-02-02T15:00:01.317Z,3.20
2023-02-02T15:02:35.711Z,2.90
2023-02-02T15:05:32.102Z,3.10
2023-02-02T15:08:30.156Z,3.00
2023-02-02T15:11:02.802Z,2.90
2023-02-02T15:13:38.177Z,3.20
2023-02-02T15:16:20.490Z,3.50
2023-02-02T15:19:16.009Z,3.00
2023-02-02T15:21:50.724Z,3.40
2023-02-02T15:24:28.117Z,3.30
2023-02-02T15:27:00.635Z,3.50
2023-02-02T15:29:45.032Z,3.80
2023-02-02T15:32:23.307Z,3.60
2023-02-02T15:35:04.818Z,3.80
2023-02-02T15:37:43.301Z,4.50
2023-02-02T15:40:23.095Z,5.00
2023-02-02T15:43:08.551Z,3.60
2023-02-02T15:45:53.524Z,21.80
2023-02-02T15:48:33.104Z,9.00
2023-02-02T15:51:08.441Z,19.50
2023-02-02T15:53:46.255Z,14.00
2023-02-02T15:56:32.792Z,13.10
2023-02-02T15:59:03.223Z,10.60
2023-02-02T16:01:47.882Z,15.60
2023-02-02T16:04:35.527Z,9.70
2023-02-02T16:07:07.911Z,17.20
2023-02-02T16:09:42.047Z,14.90
2023-02-02T16:12:21.197Z,14.00
2023-02-02T16:14:55.435Z,26.60
2023-02-02T16:17:36.182Z,5.20
2023-02-02T16:20:18.315Z,8.80
2023-02-02T16:22:48.869Z,5.30
2023-02-02T16:25:22.337Z,6.90
2023-02-02T16:27:54.194Z,6.20
2023-02-02T16:30:38.019Z,4.40
2023-02-02T16:33:40.753Z,4.10
2023-02-02T16:36:26.795Z,4.10
2023-02-02T16:38:58.477Z,4.40
2023-02-02T16:41:36.441Z,4.30
2023-02-02T16:44:40.787Z,4.50
2023-02-02T16:47:28.824Z,4.10
2023-02-02T16:50:11.558Z,4.80
2023-02-02T16:53:05.824Z,8.50
2023-02-02T16:55:50.167Z,13.20
2023-02-02T16:58:23.709Z,12.90
2023-02-02T17:01:22.558Z,4.90
2023-02-02T17:03:56.300Z,5.80
2023-02-02T17:06:51.766Z,5.10
2023-02-02T17:09:34.047Z,5.10
2023-02-02T17:12:32.591Z,4.80
2023-02-02T17:15:23.090Z,4.70
2023-02-02T17:17:54.128Z,5.50
2023-02-02T17:20:24.153Z,5.40
2023-02-02T17:23:07.522Z,6.90
2023-02-02T17:25:45.397Z,4.80
2023-02-02T17:28:21.772Z,6.80
2023-02-02T17:31:00.840Z,7.30
2023-02-02T17:33:36.600Z,4.60
2023-02-02T17:36:07.543Z,4.60
2023-02-02T17:38:39.046Z,4.80
2023-02-02T17:41:15.182Z,6.40
2023-02-02T17:43:45.612Z,21.70
2023-02-02T17:46:15.214Z,20.20
2023-02-02T17:48:44.708Z,26.90
2023-02-02T17:51:17.872Z,23.10
2023-02-02T17:53:48.090Z,7.80
2023-02-02T17:56:18.571Z,4.00
2023-02-02T17:58:49.321Z,4.00
2023-02-02T18:01:19.745Z,4.00
2023-02-02T18:03:49.968Z,4.30
2023-02-02T18:06:19.520Z,4.10
2023-02-02T18:08:50.072Z,3.90
2023-02-02T18:11:19.613Z,4.00
2023-02-02T18:13:49.637Z,4.20
2023-02-02T18:16:21.052Z,3.70
2023-02-02T18:18:51.137Z,3.80
2023-02-02T18:21:22.362Z,3.70
2023-02-02T18:23:51.937Z,4.10
2023-02-02T18:26:23.120Z,5.30
2023-02-02T18:28:54.727Z,5.70
2023-02-02T18:31:25.227Z,8.20
2023-02-02T18:33:54.956Z,7.60
2023-02-02T18:36:25.570Z,9.40
2023-02-02T18:38:56.651Z,25.40
2023-02-02T18:41:27.421Z,19.50
2023-02-02T18:43:57.454Z,7.30
2023-02-02T18:46:28.167Z,6.30
2023-02-02T18:48:58.734Z,6.60
2023-02-02T18:51:28.650Z,6.80
2023-02-02T18:54:01.667Z,9.00
2023-02-02T18:56:31.515Z,7.40
2023-02-02T18:59:02.965Z,4.80
2023-02-02T19:01:34.721Z,5.70
2023-02-02T19:04:05.498Z,13.60
2023-02-02T19:07:01.150Z,10.50
2023-02-02T19:09:31.042Z,10.10
2023-02-02T19:12:03.097Z,7.20
2023-02-02T19:14:39.115Z,7.10
2023-02-02T19:17:30.791Z,9.00
2023-02-02T19:20:10.579Z,8.10
2023-02-02T19:22:40.170Z,6.30
2023-02-02T19:25:14.510Z,7.50
2023-02-02T19:27:44.599Z,11.20
2023-02-02T19:30:22.091Z,17.40
2023-02-02T19:32:52.178Z,26.10
2023-02-02T19:35:25.925Z,22.90
2023-02-02T19:38:01.897Z,15.60
2023-02-02T19:40:31.358Z,14.00
2023-02-02T19:43:28.918Z,5.50
2023-02-02T19:46:02.077Z,4.70
2023-02-02T19:48:36.090Z,3.70
2023-02-02T19:51:44.927Z,4.50
2023-02-02T19:54:43.022Z,14.50
2023-02-02T19:57:41.800Z,12.20
2023-02-02T20:00:30.701Z,9.80
2023-02-02T20:03:07.951Z,7.60
2023-02-02T20:05:45.262Z,7.20
2023-02-02T20:08:38.949Z,7.10
2023-02-02T20:11:36.842Z,6.90
2023-02-02T20:14:36.393Z,7.40
2023-02-02T20:17:27.776Z,14.50
2023-02-02T20:20:00.453Z,13.90
2023-02-02T20:22:31.058Z,8.80
2023-02-02T20:25:07.209Z,11.10
2023-02-02T20:27:38.859Z,14.10
2023-02-02T20:30:28.874Z,14.00
2023-02-02T20:33:03.935Z,8.70
2023-02-02T20:35:39.843Z,9.10
2023-02-02T20:38:28.749Z,9.50
2023-02-02T20:41:00.039Z,6.80
2023-02-02T20:43:30.891Z,6.10
2023-02-02T20:46:00.654Z,5.70
2023-02-02T20:48:31.168Z,6.40
2023-02-02T20:51:02.816Z,6.70
2023-02-02T20:53:33.042Z,6.10
2023-02-02T20:56:03.374Z,6.00
2023-02-02T20:58:32.933Z,6.20
2023-02-02T21:01:05.890Z,9.20
2023-02-02T21:03:34.993Z,9.10
2023-02-02T21:06:04.172Z,11.20
2023-02-02T21:08:33.793Z,8.10
2023-02-02T21:11:02.538Z,15.30
2023-02-02T21:13:31.460Z,13.80
2023-02-02T21:16:00.807Z,11.40
2023-02-02T21:18:30.147Z,11.60
2023-02-02T21:20:59.226Z,6.40
2023-02-02T21:23:29.584Z,4.70
2023-02-02T21:25:59.106Z,5.10
2023-02-02T21:28:31.603Z,5.50
2023-02-02T21:31:03.296Z,7.10
2023-02-02T21:33:32.694Z,6.20
2023-02-02T21:36:11.097Z,7.20
2023-02-02T21:38:41.065Z,11.50
2023-02-02T21:41:16.439Z,14.90
2023-02-02T21:43:45.886Z,15.20
2023-02-02T21:46:21.383Z,12.40
2023-02-02T21:48:51.106Z,13.10
2023-02-02T21:51:25.322Z,13.00
2023-02-02T21:53:54.533Z,18.70
2023-02-02T21:56:33.849Z,27.40
2023-02-02T21:59:14.601Z,21.60
2023-02-02T22:01:45.216Z,15.00
2023-02-02T22:04:29.580Z,10.00
2023-02-02T22:07:16.937Z,10.90
2023-02-02T22:09:49.128Z,9.90
2023-02-02T22:12:24.099Z,10.50
2023-02-02T22:14:59.994Z,22.00
2023-02-02T22:17:40.709Z,24.80
2023-02-02T22:20:15.793Z,21.50
2023-02-02T22:22:47.681Z,10.50
2023-02-02T22:25:16.914Z,8.40
2023-02-02T22:27:56.051Z,9.50
2023-02-02T22:30:37.364Z,8.10
2023-02-02T22:33:08.915Z,7.10
2023-02-02T22:35:38.591Z,8.70
2023-02-02T22:38:08.725Z,11.70
2023-02-02T22:40:38.625Z,11.70
2023-02-02T22:43:08.855Z,10.30
2023-02-02T22:45:38.322Z,17.90
2023-02-02T22:48:07.806Z,13.20
2023-02-02T22:50:37.058Z,11.20
2023-02-02T22:53:07.085Z,9.30
2023-02-02T22:55:36.507Z,10.10
2023-02-02T22:58:05.793Z,10.80
2023-02-02T23:00:36.235Z,13.60
2023-02-02T23:03:06.559Z,10.10
2023-02-02T23:05:35.888Z,15.20
2023-02-02T23:08:06.290Z,16.60
2023-02-02T23:10:36.631Z,13.70
2023-02-02T23:13:06.532Z,8.70
2023-02-02T23:15:35.883Z,6.40
2023-02-02T23:18:05.356Z,8.70
2023-02-02T23:20:34.319Z,9.00
2023-02-02T23:23:03.029Z,8.10
2023-02-02T23:25:33.563Z,6.70
2023-02-02T23:28:03.951Z,6.80
2023-02-02T23:30:33.316Z,6.60
2023-02-02T23:33:02.264Z,7.10
2023-02-02T23:35:30.931Z,6.70
2023-02-02T23:37:59.882Z,5.80
2023-02-02T23:40:29.491Z,5.30
2023-02-02T23:42:59.559Z,5.00
2023-02-02T23:45:28.632Z,4.60
2023-02-02T23:47:58.704Z,10.80
2023-02-02T23:50:29.204Z,5.30
2023-02-02T23:52:58.461Z,4.60
2023-02-02T23:55:28.294Z,4.10
2023-02-02T23:57:58.537Z,4.40
